Time;durP1;ratioP1;P1;durP2;ratioP2;P2;SDS_P1;SDS_P2;PMS_P1;PMS_P2;Temp;Humidity;BMP_temperature;BMP_pressure;BME280_temperature;BME280_humidity;BME280_pressure;Samples;Min_cycle;Max_cycle;Signal;HPM_P1;HPM_P2
2021/07/06 00:02:22;;;;;;;6.53;3.53;;;18.60;1.00;;;;;;5039758;28;20406;-82
2021/07/06 00:04:58;;;;;;;5.07;3.40;;;18.60;1.00;;;;;;5048760;28;20466;-77
2021/07/06 00:07:27;;;;;;;4.80;3.23;;;18.60;1.00;;;;;;5057103;28;20467;-77
2021/07/06 00:09:55;;;;;;;4.23;3.40;;;18.60;1.00;;;;;;5056281;28;20407;-80
2021/07/06 00:12:25;;;;;;;4.40;3.30;;;18.60;1.00;;;;;;5056412;28;20408;-82
2021/07/06 00:14:54;;;;;;;5.17;3.67;;;18.70;1.00;;;;;;5041278;28;20483;-82
2021/07/06 00:17:22;;;;;;;5.40;4.00;;;18.70;1.00;;;;;;5039779;28;20925;-82
2021/07/06 00:19:51;;;;;;;4.27;3.77;;;18.70;1.00;;;;;;5040874;28;20391;-82
2021/07/06 00:22:20;;;;;;;5.60;4.27;;;18.70;1.00;;;;;;5038813;28;20399;-81
2021/07/06 00:24:48;;;;;;;3.93;3.53;;;18.70;1.00;;;;;;5039023;28;20407;-82
2021/07/06 00:27:17;;;;;;;4.40;3.33;;;18.70;99.90;;;;;;5039504;28;20977;-82
2021/07/06 00:29:46;;;;;;;4.10;3.70;;;18.70;99.90;;;;;;5038939;28;20870;-82
2021/07/06 00:32:14;;;;;;;4.50;3.30;;;18.70;85.80;;;;;;5039114;28;20859;-83
2021/07/06 00:34:43;;;;;;;5.80;4.70;;;18.80;17.60;;;;;;5039360;28;20500;-82
2021/07/06 00:37:11;;;;;;;6.70;5.03;;;18.80;1.00;;;;;;5038373;28;20467;-83
2021/07/06 00:39:39;;;;;;;4.73;3.53;;;18.80;99.90;;;;;;5039639;28;20393;-82
2021/07/06 00:42:09;;;;;;;4.70;3.90;;;18.80;1.00;;;;;;5041066;28;20410;-80
2021/07/06 00:44:38;;;;;;;4.60;4.20;;;18.80;1.00;;;;;;5039347;28;20436;-83
2021/07/06 00:47:08;;;;;;;7.10;4.07;;;18.80;1.00;;;;;;5038654;28;20514;-82
2021/07/06 00:49:36;;;;;;;3.93;3.40;;;18.90;1.00;;;;;;5039660;28;20495;-82
2021/07/06 00:52:05;;;;;;;5.50;4.23;;;18.90;99.90;;;;;;5039716;28;20800;-82
2021/07/06 00:54:33;;;;;;;4.63;3.13;;;18.90;1.00;;;;;;5038098;28;20512;-82
2021/07/06 00:57:02;;;;;;;4.13;3.30;;;18.90;1.00;;;;;;5039577;28;20447;-82
2021/07/06 00:59:30;;;;;;;4.97;3.87;;;18.90;1.00;;;;;;5038583;28;20429;-81
2021/07/06 01:01:58;;;;;;;5.00;3.90;;;18.80;1.00;;;;;;5039663;28;20403;-81
2021/07/06 01:04:28;;;;;;;8.37;4.57;;;18.70;1.00;;;;;;5038352;28;20822;-82
2021/07/06 01:06:56;;;;;;;5.93;4.20;;;18.60;1.00;;;;;;5039777;28;20434;-83
2021/07/06 01:09:24;;;;;;;5.47;4.30;;;18.60;1.00;;;;;;5047107;28;20865;-79
2021/07/06 01:11:52;;;;;;;4.03;3.63;;;18.60;1.00;;;;;;5053969;28;20406;-80
2021/07/06 01:14:22;;;;;;;7.03;4.80;;;18.60;1.00;;;;;;5048798;28;20471;-83
2021/07/06 01:16:50;;;;;;;4.47;3.87;;;18.60;6.40;;;;;;5037442;28;20431;-82
2021/07/06 01:19:19;;;;;;;4.07;3.47;;;18.60;20.60;;;;;;5038630;28;20421;-83
2021/07/06 01:21:48;;;;;;;6.57;5.07;;;18.60;44.80;;;;;;5037946;28;20420;-82
2021/07/06 01:24:17;;;;;;;7.63;4.17;;;18.50;81.00;;;;;;5036616;28;20469;-82
2021/07/06 01:26:51;;;;;;;5.03;4.07;;;18.40;99.90;;;;;;5035969;28;20438;-82
2021/07/06 01:29:20;;;;;;;4.40;3.37;;;18.50;1.00;;;;;;5034322;28;20421;-80
2021/07/06 01:31:49;;;;;;;4.43;4.03;;;18.50;99.90;;;;;;5034629;28;20493;-81
2021/07/06 01:34:18;;;;;;;4.20;3.80;;;18.40;1.00;;;;;;5035011;28;20867;-82
2021/07/06 01:36:47;;;;;;;4.80;3.90;;;18.40;1.00;;;;;;5034217;28;20537;-80
2021/07/06 01:39:21;;;;;;;7.40;4.27;;;18.40;1.00;;;;;;5036754;28;20452;-81
2021/07/06 01:41:49;;;;;;;4.50;3.67;;;18.30;1.00;;;;;;5036548;28;20406;-80
2021/07/06 01:44:22;;;;;;;8.03;5.30;;;18.30;24.20;;;;;;5037219;28;20444;-81
2021/07/06 01:46:51;;;;;;;4.97;4.20;;;18.30;1.00;;;;;;5036649;28;20433;-81
2021/07/06 01:49:20;;;;;;;5.07;3.43;;;18.20;99.90;;;;;;5039535;28;20494;-81
2021/07/06 01:51:50;;;;;;;4.67;4.27;;;18.20;1.00;;;;;;5041698;28;20447;-82
2021/07/06 01:54:20;;;;;;;5.20;4.67;;;18.20;99.90;;;;;;5041406;28;20427;-82
2021/07/06 01:56:49;;;;;;;4.50;4.10;;;18.20;99.90;;;;;;5038946;28;20514;-81
2021/07/06 01:59:17;;;;;;;4.90;4.40;;;18.20;99.90;;;;;;5040859;28;20418;-82
2021/07/06 02:01:46;;;;;;;4.40;4.00;;;18.30;1.00;;;;;;5040780;28;20395;-82
2021/07/06 02:04:15;;;;;;;4.73;3.90;;;18.30;99.90;;;;;;5040418;28;20424;-82
2021/07/06 02:06:44;;;;;;;5.27;4.73;;;18.40;99.90;;;;;;5039705;28;20448;-82
2021/07/06 02:09:12;;;;;;;5.00;3.53;;;18.50;1.00;;;;;;5037580;28;20414;-83
2021/07/06 02:11:43;;;;;;;4.17;3.53;;;18.50;99.90;;;;;;5039541;28;20829;-81
2021/07/06 02:14:11;;;;;;;6.20;4.47;;;18.60;99.90;;;;;;5037091;28;20961;-80
2021/07/06 02:16:40;;;;;;;5.17;2.83;;;18.70;99.90;;;;;;5044400;28;20472;-78
2021/07/06 02:19:09;;;;;;;3.40;3.00;;;18.70;99.90;;;;;;5060609;28;20498;-78
2021/07/06 02:21:37;;;;;;;4.00;3.60;;;18.60;99.90;;;;;;5059588;28;20423;-78
2021/07/06 02:24:06;;;;;;;4.63;4.23;;;18.60;99.90;;;;;;5059497;28;20495;-79
2021/07/06 02:26:34;;;;;;;5.00;3.20;;;18.50;99.90;;;;;;5059281;28;20431;-80
2021/07/06 02:29:03;;;;;;;3.10;2.20;;;18.50;99.90;;;;;;5058699;28;20399;-79
2021/07/06 02:31:31;;;;;;;8.63;3.30;;;18.60;99.90;;;;;;5053402;28;20445;-82
2021/07/06 02:33:59;;;;;;;3.50;2.73;;;18.50;99.90;;;;;;5046715;28;20430;-83
2021/07/06 02:36:27;;;;;;;3.13;2.50;;;18.50;99.90;;;;;;5040486;28;20961;-82
2021/07/06 02:39:00;;;;;;;3.23;2.93;;;18.50;99.90;;;;;;5040671;28;20439;-82
2021/07/06 02:41:28;;;;;;;3.57;2.73;;;18.50;99.90;;;;;;5041678;28;20399;-83
2021/07/06 02:43:56;;;;;;;10.30;3.10;;;18.50;99.90;;;;;;5041780;28;20458;-83
2021/07/06 02:46:25;;;;;;;2.63;2.33;;;18.50;99.90;;;;;;5045861;28;20410;-80
2021/07/06 02:48:53;;;;;;;2.77;2.57;;;18.60;99.90;;;;;;5049422;28;20453;-82
2021/07/06 02:51:22;;;;;;;3.07;2.53;;;18.60;99.90;;;;;;5053009;28;20455;-81
2021/07/06 02:53:50;;;;;;;3.23;2.60;;;18.80;99.90;;;;;;5050421;28;20423;-81
2021/07/06 02:56:18;;;;;;;2.67;2.47;;;18.90;99.90;;;;;;5050155;28;20450;-82
2021/07/06 02:58:46;;;;;;;6.43;2.47;;;19.00;99.90;;;;;;5047423;28;20463;-81
2021/07/06 03:01:14;;;;;;;3.20;2.90;;;18.90;99.90;;;;;;5052851;28;20476;-81
2021/07/06 03:03:44;;;;;;;2.43;2.00;;;18.90;99.90;;;;;;5051500;28;20472;-78
2021/07/06 03:06:12;;;;;;;3.90;3.50;;;18.80;99.90;;;;;;5043409;28;20846;-81
2021/07/06 03:08:40;;;;;;;3.03;2.50;;;18.80;99.90;;;;;;5043759;28;20453;-81
2021/07/06 03:11:08;;;;;;;3.10;2.80;;;18.80;99.90;;;;;;5047220;28;20428;-81
2021/07/06 03:13:36;;;;;;;2.80;2.50;;;18.90;99.90;;;;;;5038214;28;20441;-80
2021/07/06 03:16:05;;;;;;;3.50;2.90;;;19.00;99.90;;;;;;5038927;28;20879;-83
2021/07/06 03:18:34;;;;;;;4.67;2.43;;;18.90;99.90;;;;;;5037609;28;20522;-82
2021/07/06 03:21:03;;;;;;;3.27;2.97;;;19.00;99.90;;;;;;5038339;28;20487;-81
2021/07/06 03:23:32;;;;;;;4.03;3.30;;;19.00;99.90;;;;;;5037441;28;20418;-81
2021/07/06 03:26:00;;;;;;;7.60;2.63;;;19.10;99.90;;;;;;5037366;28;20409;-82
2021/07/06 03:28:28;;;;;;;3.17;2.87;;;19.00;99.90;;;;;;5037707;28;20494;-83
2021/07/06 03:30:57;;;;;;;3.10;2.80;;;19.00;99.90;;;;;;5037283;28;20905;-82
2021/07/06 03:33:25;;;;;;;3.57;3.17;;;19.10;99.90;;;;;;5036244;28;20428;-80
2021/07/06 03:35:54;;;;;;;3.83;2.70;;;19.10;99.90;;;;;;5038763;28;20438;-81
2021/07/06 03:38:23;;;;;;;3.23;2.57;;;19.10;99.90;;;;;;5043359;28;20418;-80
2021/07/06 03:40:51;;;;;;;3.20;3.00;;;19.10;99.90;;;;;;5043505;28;20390;-81
2021/07/06 03:43:19;;;;;;;3.40;3.10;;;19.30;99.90;;;;;;5043231;28;20475;-80
2021/07/06 03:45:47;;;;;;;3.20;2.50;;;19.60;99.90;;;;;;5043994;28;20413;-81
2021/07/06 03:48:16;;;;;;;3.10;2.80;;;20.30;99.90;;;;;;5043852;28;20455;-80
2021/07/06 03:50:44;;;;;;;3.93;3.13;;;21.10;99.90;;;;;;5043492;28;20402;-81
2021/07/06 03:53:12;;;;;;;3.53;3.20;;;21.90;99.90;;;;;;5044427;28;20395;-79
2021/07/06 03:55:41;;;;;;;7.20;3.20;;;21.90;99.90;;;;;;5043261;28;20459;-81
2021/07/06 03:58:09;;;;;;;3.70;3.20;;;21.70;99.90;;;;;;5044417;28;20445;-81
2021/07/06 04:00:40;;;;;;;4.30;2.67;;;21.70;99.90;;;;;;5042217;28;20428;-80
2021/07/06 04:03:08;;;;;;;3.40;3.07;;;21.70;99.90;;;;;;5052602;28;20392;-83
2021/07/06 04:05:36;;;;;;;3.03;2.73;;;21.70;99.90;;;;;;5056296;28;20495;-79
2021/07/06 04:08:05;;;;;;;3.40;3.10;;;21.60;99.90;;;;;;5055244;28;20423;-80
2021/07/06 04:10:33;;;;;;;3.17;2.87;;;21.70;99.90;;;;;;5055788;28;20488;-80
2021/07/06 04:13:02;;;;;;;4.07;2.67;;;22.80;99.90;;;;;;5056456;28;20414;-80
2021/07/06 04:15:31;;;;;;;3.63;2.50;;;24.80;99.90;;;;;;5056888;28;20394;-78
2021/07/06 04:17:59;;;;;;;5.40;2.80;;;26.60;99.90;;;;;;5057563;28;20463;-82
2021/07/06 04:20:27;;;;;;;2.80;2.60;;;27.50;99.90;;;;;;5057792;28;20428;-80
2021/07/06 04:22:55;;;;;;;3.00;2.70;;;27.80;99.90;;;;;;5057399;28;20433;-78
2021/07/06 04:25:23;;;;;;;3.67;2.43;;;27.60;99.90;;;;;;5057847;28;20408;-81
2021/07/06 04:27:52;;;;;;;2.80;2.60;;;27.80;99.90;;;;;;5049764;28;20466;-79
2021/07/06 04:30:22;;;;;;;2.70;2.40;;;28.40;99.90;;;;;;5042324;28;20946;-79
2021/07/06 04:32:50;;;;;;;3.10;2.90;;;27.80;99.90;;;;;;5047423;28;20821;-80
2021/07/06 04:35:19;;;;;;;2.70;2.50;;;26.30;99.90;;;;;;5043511;28;20461;-80
2021/07/06 04:37:47;;;;;;;3.50;3.20;;;24.60;99.90;;;;;;5042312;28;20476;-80
2021/07/06 04:40:17;;;;;;;2.83;2.60;;;23.70;99.90;;;;;;5047686;28;20416;-78
2021/07/06 04:42:46;;;;;;;3.07;2.73;;;22.90;99.90;;;;;;5050230;28;20440;-80
2021/07/06 04:45:14;;;;;;;3.83;3.20;;;22.60;99.90;;;;;;5048300;28;20450;-79
2021/07/06 04:47:44;;;;;;;3.90;3.00;;;22.60;99.90;;;;;;5047173;28;20774;-80
2021/07/06 04:50:14;;;;;;;6.13;3.10;;;23.50;99.90;;;;;;5041585;28;20416;-79
2021/07/06 04:52:46;;;;;;;3.10;2.40;;;25.50;99.90;;;;;;5046914;28;20426;-81
2021/07/06 04:55:16;;;;;;;2.60;2.40;;;27.80;99.90;;;;;;5044673;28;20391;-80
2021/07/06 04:57:44;;;;;;;2.63;2.43;;;29.90;99.90;;;;;;5043645;28;20478;-80
2021/07/06 05:00:14;;;;;;;3.17;2.40;;;31.10;99.90;;;;;;5043112;28;20398;-80
2021/07/06 05:02:46;;;;;;;2.63;2.43;;;32.20;99.90;;;;;;5040994;28;20432;-80
2021/07/06 05:05:18;;;;;;;2.40;2.20;;;33.10;99.90;;;;;;5041032;28;20468;-79
2021/07/06 05:07:46;;;;;;;2.50;2.30;;;33.60;99.90;;;;;;5040165;28;20462;-80
2021/07/06 05:10:15;;;;;;;3.17;2.87;;;33.20;99.90;;;;;;5039017;28;20436;-80
2021/07/06 05:12:43;;;;;;;2.90;2.37;;;33.70;99.90;;;;;;5041134;28;20910;-79
2021/07/06 05:15:12;;;;;;;5.47;2.37;;;34.10;99.90;;;;;;5041235;28;20424;-81
2021/07/06 05:17:40;;;;;;;3.23;2.60;;;33.80;99.90;;;;;;5047482;28;20490;-80
2021/07/06 05:20:11;;;;;;;4.60;2.77;;;34.00;99.90;;;;;;5047513;28;20428;-80
2021/07/06 05:22:43;;;;;;;2.63;2.43;;;34.60;99.90;;;;;;5048571;28;20416;-79
2021/07/06 05:25:12;;;;;;;3.80;2.20;;;35.00;99.90;;;;;;5054893;28;20412;-79
2021/07/06 05:27:40;;;;;;;3.43;2.53;;;34.70;99.90;;;;;;5048065;28;20456;-82
2021/07/06 05:30:10;;;;;;;2.17;1.97;;;33.60;99.90;;;;;;5044415;28;20416;-80
2021/07/06 05:32:40;;;;;;;2.40;2.20;;;34.40;99.90;;;;;;5044639;28;20428;-81
2021/07/06 05:35:10;;;;;;;2.47;2.00;;;34.90;99.90;;;;;;5041107;28;20443;-80
2021/07/06 05:37:39;;;;;;;2.03;1.83;;;35.40;99.90;;;;;;5042447;28;20483;-79
2021/07/06 05:40:09;;;;;;;2.63;2.27;;;35.40;99.90;;;;;;5045171;28;20422;-79
2021/07/06 05:42:41;;;;;;;2.30;1.83;;;33.30;99.90;;;;;;5047436;28;20431;-81
2021/07/06 05:45:11;;;;;;;2.40;2.20;;;31.10;99.90;;;;;;5063963;28;20412;-78
2021/07/06 05:47:40;;;;;;;2.93;2.60;;;29.40;99.90;;;;;;5053315;28;20972;-78
2021/07/06 05:50:13;;;;;;;2.20;2.00;;;27.80;99.90;;;;;;5038981;28;20843;-79
2021/07/06 05:52:41;;;;;;;2.70;2.50;;;26.90;99.90;;;;;;5032346;28;20440;-79
2021/07/06 05:55:10;;;;;;;2.73;2.43;;;26.40;99.90;;;;;;5033473;28;20922;-79
2021/07/06 05:57:41;;;;;;;3.00;2.60;;;26.20;99.90;;;;;;5037201;28;20472;-78
2021/07/06 06:00:13;;;;;;;2.43;2.23;;;25.90;99.90;;;;;;5047511;28;20464;-80
2021/07/06 06:02:41;;;;;;;3.67;3.00;;;25.80;99.90;;;;;;5048294;28;20431;-80
2021/07/06 06:05:11;;;;;;;2.80;2.03;;;25.30;99.90;;;;;;5056402;28;20401;-80
2021/07/06 06:07:40;;;;;;;2.70;2.50;;;24.70;99.90;;;;;;5056089;28;20452;-81
2021/07/06 06:10:11;;;;;;;3.30;2.30;;;24.50;99.90;;;;;;5056940;28;20390;-81
2021/07/06 06:12:41;;;;;;;2.87;2.50;;;24.30;99.90;;;;;;5056010;28;20379;-80
2021/07/06 06:15:10;;;;;;;2.30;2.03;;;24.40;99.90;;;;;;5054083;28;20406;-81
2021/07/06 06:17:40;;;;;;;2.00;1.70;;;24.60;99.90;;;;;;5049218;28;20506;-82
2021/07/06 06:20:11;;;;;;;3.20;2.73;;;24.50;99.90;;;;;;5044662;28;20527;-80
2021/07/06 06:22:40;;;;;;;3.70;3.37;;;24.20;99.90;;;;;;5042640;28;20538;-81
2021/07/06 06:25:10;;;;;;;3.80;3.10;;;24.10;99.90;;;;;;5056781;28;20467;-79
2021/07/06 06:27:39;;;;;;;3.27;2.50;;;24.10;99.90;;;;;;5061306;28;20447;-80
2021/07/06 06:30:09;;;;;;;2.47;2.10;;;24.10;99.90;;;;;;5060973;28;20483;-80
2021/07/06 06:32:37;;;;;;;2.00;1.80;;;24.10;99.90;;;;;;5062436;28;20438;-81
2021/07/06 06:35:06;;;;;;;8.03;1.73;;;24.00;99.90;;;;;;5059170;28;20817;-80
2021/07/06 06:37:36;;;;;;;5.23;1.87;;;23.90;99.90;;;;;;5058584;28;20529;-79
2021/07/06 06:40:07;;;;;;;2.93;2.10;;;23.90;99.90;;;;;;5057332;28;20916;-79
2021/07/06 06:42:35;;;;;;;2.07;1.83;;;23.90;99.90;;;;;;5059868;28;20929;-78
2021/07/06 06:45:04;;;;;;;2.40;2.10;;;23.90;99.90;;;;;;5060350;28;20419;-79
2021/07/06 06:47:33;;;;;;;2.90;2.37;;;24.00;99.90;;;;;;5057969;28;20437;-79
2021/07/06 06:50:01;;;;;;;2.27;2.07;;;23.90;99.90;;;;;;5048739;28;20453;-79
2021/07/06 06:52:29;;;;;;;2.03;1.87;;;23.90;99.90;;;;;;5039956;28;20478;-80
2021/07/06 06:55:03;;;;;;;2.00;1.60;;;23.90;99.90;;;;;;5043772;28;20408;-79
2021/07/06 06:57:31;;;;;;;1.77;1.50;;;24.10;99.90;;;;;;5052986;28;20460;-78
2021/07/06 07:00:03;;;;;;;2.17;1.97;;;24.30;99.90;;;;;;5050760;28;20453;-79
2021/07/06 07:02:32;;;;;;;2.27;1.73;;;24.50;99.90;;;;;;5051293;28;20391;-79
2021/07/06 07:05:01;;;;;;;1.67;1.43;;;24.60;99.90;;;;;;5041135;28;20478;-79
2021/07/06 07:07:30;;;;;;;1.77;1.53;;;24.70;99.90;;;;;;5041021;28;20443;-79
2021/07/06 07:09:58;;;;;;;1.77;1.43;;;24.90;99.90;;;;;;5043034;28;20448;-80
2021/07/06 07:12:27;;;;;;;1.50;1.40;;;25.00;99.90;;;;;;5041412;28;20436;-81
2021/07/06 07:14:56;;;;;;;2.03;1.83;;;25.10;99.90;;;;;;5037184;28;20439;-78
2021/07/06 07:17:24;;;;;;;2.47;2.27;;;25.30;99.90;;;;;;5036327;28;21225;-79
2021/07/06 07:19:52;;;;;;;2.90;2.00;;;25.60;99.90;;;;;;5037169;28;20408;-80
2021/07/06 07:22:20;;;;;;;2.50;1.70;;;25.80;99.90;;;;;;5038246;28;20416;-78
2021/07/06 07:24:48;;;;;;;1.93;1.50;;;26.00;99.90;;;;;;5035499;28;20798;-80
2021/07/06 07:27:17;;;;;;;2.37;1.90;;;26.20;99.90;;;;;;5034196;28;20492;-79
2021/07/06 07:29:46;;;;;;;1.70;1.23;;;26.20;99.90;;;;;;5036559;28;20431;-80
2021/07/06 07:32:15;;;;;;;2.80;1.60;;;26.00;99.90;;;;;;5038887;28;20520;-79
2021/07/06 07:34:43;;;;;;;2.47;1.80;;;25.90;99.90;;;;;;5041066;28;20428;-80
2021/07/06 07:37:11;;;;;;;4.00;1.73;;;25.90;99.90;;;;;;5041267;28;20486;-80
2021/07/06 07:39:40;;;;;;;1.97;1.30;;;25.80;99.90;;;;;;5039791;28;20412;-80
2021/07/06 07:42:08;;;;;;;1.23;1.10;;;25.80;99.90;;;;;;5040390;28;20450;-80
2021/07/06 07:44:37;;;;;;;5.40;1.97;;;25.70;99.90;;;;;;5038978;28;20440;-80
2021/07/06 07:47:07;;;;;;;11.80;2.83;;;25.70;99.90;;;;;;5040194;28;20816;-80
2021/07/06 07:49:35;;;;;;;1.80;1.70;;;25.70;99.90;;;;;;5038451;28;20435;-79
2021/07/06 07:52:04;;;;;;;2.93;2.20;;;25.80;99.90;;;;;;5038417;28;20470;-80
2021/07/06 07:54:32;;;;;;;1.77;1.67;;;25.70;99.90;;;;;;5041302;28;20832;-79
2021/07/06 07:57:00;;;;;;;3.00;1.93;;;25.70;99.90;;;;;;5039113;28;20501;-80
2021/07/06 07:59:29;;;;;;;4.40;1.40;;;25.70;99.90;;;;;;5036725;28;20518;-79
2021/07/06 08:01:57;;;;;;;3.10;1.93;;;25.80;99.90;;;;;;5037866;28;20444;-80
2021/07/06 08:04:27;;;;;;;1.73;1.50;;;25.70;99.90;;;;;;5038482;28;20459;-80
2021/07/06 08:06:55;;;;;;;3.80;2.27;;;25.70;99.90;;;;;;5040816;28;20444;-78
2021/07/06 08:09:28;;;;;;;2.57;1.20;;;25.70;99.90;;;;;;5039248;28;20503;-81
2021/07/06 08:11:56;;;;;;;2.60;1.90;;;25.60;99.90;;;;;;5034846;28;20432;-80
2021/07/06 08:14:24;;;;;;;4.30;1.53;;;25.70;99.90;;;;;;5035594;28;20412;-80
2021/07/06 08:16:54;;;;;;;1.60;1.00;;;25.80;99.90;;;;;;5035420;28;20447;-79
2021/07/06 08:19:23;;;;;;;1.90;1.70;;;25.80;99.90;;;;;;5037779;28;20452;-79
2021/07/06 08:21:53;;;;;;;3.77;2.00;;;26.00;99.90;;;;;;5038861;28;20484;-80
2021/07/06 08:24:21;;;;;;;1.60;1.30;;;26.00;99.90;;;;;;5038814;28;20767;-79
2021/07/06 08:26:49;;;;;;;1.20;1.00;;;26.10;99.90;;;;;;5047972;28;20467;-79
2021/07/06 08:29:18;;;;;;;4.20;1.17;;;26.20;99.90;;;;;;5054689;28;20423;-80
2021/07/06 08:31:46;;;;;;;2.27;1.50;;;26.30;99.90;;;;;;5057208;28;20428;-80
2021/07/06 08:34:15;;;;;;;1.90;1.37;;;26.30;99.90;;;;;;5059357;28;20419;-80
2021/07/06 08:36:43;;;;;;;1.53;1.23;;;26.30;99.90;;;;;;5052896;28;20463;-80
2021/07/06 08:39:12;;;;;;;1.77;1.40;;;26.40;99.90;;;;;;5055215;28;20455;-80
2021/07/06 08:41:41;;;;;;;2.07;1.23;;;26.50;99.90;;;;;;5054800;28;20416;-79
2021/07/06 08:44:10;;;;;;;1.60;1.50;;;26.60;99.90;;;;;;5054677;28;20427;-79
2021/07/06 08:46:40;;;;;;;4.90;1.20;;;26.50;99.90;;;;;;5055703;28;20845;-80
2021/07/06 08:49:11;;;;;;;1.50;1.10;;;26.70;99.90;;;;;;5049587;28;20436;-80
2021/07/06 08:51:42;;;;;;;2.00;1.40;;;26.70;99.90;;;;;;5038719;28;20518;-80
2021/07/06 08:54:12;;;;;;;1.83;1.53;;;26.60;99.90;;;;;;5039252;28;20962;-80
2021/07/06 08:56:41;;;;;;;3.90;1.37;;;26.50;99.90;;;;;;5035093;28;20474;-79
2021/07/06 08:59:28;;;;;;;1.40;1.00;;;26.50;99.90;;;;;;5035083;28;20997;-78
2021/07/06 09:01:56;;;;;;;1.73;1.17;;;26.60;99.90;;;;;;5052326;28;20435;-79
2021/07/06 09:04:42;;;;;;;1.60;1.50;;;26.70;99.90;;;;;;5056424;28;20427;-79
2021/07/06 09:07:10;;;;;;;1.60;1.10;;;26.90;99.90;;;;;;5057029;28;20445;-79
2021/07/06 09:09:39;;;;;;;1.53;1.23;;;27.00;99.90;;;;;;5056668;28;20423;-78
2021/07/06 09:12:12;;;;;;;1.67;1.33;;;27.10;99.90;;;;;;5062277;28;20510;-78
2021/07/06 09:14:44;;;;;;;1.60;0.90;;;27.00;99.90;;;;;;5060862;28;20826;-77
2021/07/06 09:17:14;;;;;;;1.70;1.20;;;26.90;99.90;;;;;;5063670;28;20526;-78
2021/07/06 09:19:44;;;;;;;3.30;1.30;;;26.90;99.90;;;;;;5066635;28;20534;-78
2021/07/06 09:22:16;;;;;;;3.87;0.93;;;27.00;99.90;;;;;;5067530;28;20477;-79
2021/07/06 09:24:46;;;;;;;1.77;1.40;;;27.00;99.90;;;;;;5070431;28;20469;-80
2021/07/06 09:27:27;;;;;;;1.70;1.60;;;27.10;99.90;;;;;;5052741;28;20450;-80
2021/07/06 09:30:14;;;;;;;1.93;1.60;;;27.20;99.90;;;;;;5037377;28;20881;-80
2021/07/06 09:32:46;;;;;;;1.53;1.17;;;27.40;99.90;;;;;;5037314;28;20503;-80
2021/07/06 09:35:22;;;;;;;1.37;0.97;;;27.50;99.90;;;;;;5037656;28;20910;-80
2021/07/06 09:37:52;;;;;;;1.40;1.03;;;27.70;99.90;;;;;;5042759;28;20457;-80
2021/07/06 09:40:30;;;;;;;1.63;1.00;;;27.80;99.90;;;;;;5043822;28;20543;-81
2021/07/06 09:43:21;;;;;;;2.03;1.27;;;27.90;99.90;;;;;;5043395;28;20440;-80
2021/07/06 09:46:05;;;;;;;1.33;1.00;;;27.70;99.90;;;;;;5053273;28;20435;-82
2021/07/06 09:48:47;;;;;;;2.30;1.10;;;27.60;99.90;;;;;;5036029;28;20429;-79
2021/07/06 09:51:18;;;;;;;1.67;0.97;;;27.70;99.90;;;;;;5035793;28;20425;-78
2021/07/06 09:53:48;;;;;;;2.90;1.47;;;27.80;99.90;;;;;;5053206;28;20456;-78
2021/07/06 09:56:17;;;;;;;1.90;1.30;;;27.90;99.90;;;;;;5070059;28;20523;-79
2021/07/06 09:58:59;;;;;;;1.80;1.07;;;28.00;99.90;;;;;;5076073;28;20475;-77
2021/07/06 10:01:28;;;;;;;1.70;0.90;;;28.00;99.90;;;;;;5079258;28;20426;-78
2021/07/06 10:03:58;;;;;;;1.83;1.57;;;28.00;99.90;;;;;;5066353;28;20422;-80
2021/07/06 10:06:28;;;;;;;1.73;1.13;;;27.90;99.90;;;;;;5059873;28;20545;-80
2021/07/06 10:08:57;;;;;;;1.80;1.40;;;27.90;99.90;;;;;;5060203;28;20458;-80
2021/07/06 10:11:26;;;;;;;1.83;1.33;;;28.00;99.90;;;;;;5062708;28;20549;-81
2021/07/06 10:13:56;;;;;;;2.07;1.20;;;28.10;99.90;;;;;;5060255;28;20446;-81
2021/07/06 10:16:25;;;;;;;1.37;1.10;;;28.20;99.90;;;;;;5062563;28;20502;-81
2021/07/06 10:18:54;;;;;;;1.93;1.10;;;28.30;99.90;;;;;;5062129;28;20474;-80
2021/07/06 10:21:23;;;;;;;1.43;1.10;;;28.50;99.90;;;;;;5059668;28;20454;-81
2021/07/06 10:23:52;;;;;;;1.30;0.93;;;28.70;99.90;;;;;;5059138;28;20447;-80
2021/07/06 10:26:25;;;;;;;1.60;1.20;;;28.80;99.90;;;;;;5059102;28;20520;-80
2021/07/06 10:28:56;;;;;;;3.53;1.10;;;29.00;99.90;;;;;;5061497;28;20438;-81
2021/07/06 10:31:25;;;;;;;1.40;1.20;;;29.30;99.90;;;;;;5064764;28;20442;-82
2021/07/06 10:33:55;;;;;;;1.40;0.90;;;29.30;99.90;;;;;;5060564;28;20424;-81
2021/07/06 10:36:37;;;;;;;1.37;0.90;;;29.20;99.90;;;;;;5060604;28;21221;-81
2021/07/06 10:39:07;;;;;;;1.30;1.07;;;29.10;99.90;;;;;;5063038;28;20890;-80
2021/07/06 10:41:53;;;;;;;1.73;1.10;;;29.10;99.90;;;;;;5056976;28;20854;-82
2021/07/06 10:44:34;;;;;;;1.27;0.80;;;29.20;99.90;;;;;;5059903;28;20435;-81
2021/07/06 10:47:04;;;;;;;2.10;1.43;;;29.40;99.90;;;;;;5050171;28;20458;-81
2021/07/06 10:49:35;;;;;;;1.93;1.53;;;29.50;99.90;;;;;;5040043;28;20447;-83
2021/07/06 10:52:06;;;;;;;1.20;0.70;;;29.40;99.90;;;;;;5035526;28;20438;-81
2021/07/06 10:54:39;;;;;;;2.40;0.93;;;29.50;99.90;;;;;;5038288;28;20436;-81
2021/07/06 10:57:24;;;;;;;1.23;0.80;;;29.50;99.90;;;;;;5038775;28;20491;-82
2021/07/06 10:59:59;;;;;;;1.57;1.20;;;29.20;99.90;;;;;;5039385;28;20472;-82
2021/07/06 11:02:30;;;;;;;1.50;1.00;;;29.20;99.90;;;;;;5041793;28;20518;-82
2021/07/06 11:05:05;;;;;;;1.43;0.93;;;29.20;99.90;;;;;;5049734;28;20463;-82
2021/07/06 11:08:00;;;;;;;1.47;0.90;;;29.10;99.90;;;;;;5040982;28;20469;-82
2021/07/06 11:10:43;;;;;;;2.33;1.00;;;29.20;99.90;;;;;;5037591;28;20428;-80
2021/07/06 11:13:27;;;;;;;1.10;0.80;;;29.30;99.90;;;;;;5039538;28;20510;-83
2021/07/06 11:16:00;;;;;;;1.40;0.90;;;29.30;99.90;;;;;;5053954;28;20422;-79
2021/07/06 11:18:44;;;;;;;1.90;1.07;;;29.30;99.90;;;;;;5059205;28;20480;-79
2021/07/06 11:21:42;;;;;;;1.80;1.17;;;29.50;99.90;;;;;;5058515;28;20456;-77
2021/07/06 11:24:15;;;;;;;2.07;1.10;;;29.70;99.90;;;;;;4998988;28;20435;-79
2021/07/06 11:26:45;;;;;;;2.03;1.33;;;29.80;99.90;;;;;;5065948;28;20490;-77
2021/07/06 11:29:25;;;;;;;1.70;1.53;;;29.90;99.90;;;;;;5078222;28;20457;-78
2021/07/06 11:32:09;;;;;;;1.57;1.00;;;29.80;99.90;;;;;;5078432;28;20435;-78
2021/07/06 11:34:38;;;;;;;1.47;1.00;;;29.90;99.90;;;;;;5077441;28;20439;-78
2021/07/06 11:37:09;;;;;;;1.30;0.90;;;29.80;99.90;;;;;;5068242;28;20465;-82
2021/07/06 11:39:37;;;;;;;2.70;0.87;;;30.00;99.90;;;;;;5059296;28;20914;-81
2021/07/06 11:42:06;;;;;;;3.30;1.20;;;30.30;99.90;;;;;;5056425;28;20435;-82
2021/07/06 11:44:35;;;;;;;1.70;1.00;;;30.40;99.90;;;;;;5058417;28;20428;-82
2021/07/06 11:47:12;;;;;;;1.87;1.30;;;30.50;99.90;;;;;;5050164;28;21076;-80
2021/07/06 11:49:44;;;;;;;1.10;0.80;;;30.60;99.90;;;;;;5040295;28;20419;-82
2021/07/06 11:52:12;;;;;;;2.30;0.90;;;30.50;99.90;;;;;;5039764;28;20795;-82
2021/07/06 11:54:44;;;;;;;1.30;1.00;;;30.30;99.90;;;;;;5038326;28;20431;-82
2021/07/06 11:57:13;;;;;;;2.00;1.37;;;30.30;99.90;;;;;;5036685;28;20471;-81
2021/07/06 11:59:41;;;;;;;1.30;1.20;;;30.40;99.90;;;;;;5039553;28;20424;-82
2021/07/06 12:02:13;;;;;;;2.20;1.00;;;30.50;99.90;;;;;;5052463;28;20491;-78
2021/07/06 12:04:42;;;;;;;1.50;1.27;;;30.70;99.90;;;;;;5045799;28;20421;-78
2021/07/06 12:07:13;;;;;;;2.23;1.70;;;30.80;99.90;;;;;;5058644;28;20581;-78
2021/07/06 12:09:41;;;;;;;2.17;1.40;;;31.10;99.90;;;;;;5074509;28;20458;-77
2021/07/06 12:12:11;;;;;;;2.10;1.57;;;31.30;99.90;;;;;;5073179;28;20436;-79
2021/07/06 12:14:44;;;;;;;2.40;1.47;;;31.40;99.90;;;;;;5056896;28;20800;-81
2021/07/06 12:17:23;;;;;;;1.30;0.90;;;31.30;99.90;;;;;;5056117;28;20466;-77
2021/07/06 12:19:52;;;;;;;1.20;0.80;;;31.10;99.90;;;;;;5070266;28;20486;-80
2021/07/06 12:22:21;;;;;;;1.30;0.80;;;31.20;99.90;;;;;;5053787;28;20421;-81
2021/07/06 12:24:49;;;;;;;1.77;1.00;;;31.50;99.90;;;;;;5045974;28;20424;-77
2021/07/06 12:27:18;;;;;;;1.83;1.30;;;31.40;99.90;;;;;;5037712;28;20471;-82
2021/07/06 12:29:55;;;;;;;1.63;1.20;;;31.40;99.90;;;;;;5039823;28;20520;-81
2021/07/06 12:32:24;;;;;;;1.60;1.27;;;31.20;99.90;;;;;;5036270;28;20475;-79
2021/07/06 12:34:57;;;;;;;1.40;1.13;;;31.20;99.90;;;;;;5036283;28;20454;-80
2021/07/06 12:37:26;;;;;;;1.27;1.00;;;30.90;99.90;;;;;;5037573;28;20451;-81
2021/07/06 12:40:03;;;;;;;1.27;1.07;;;30.70;99.90;;;;;;5038791;28;20428;-81
2021/07/06 12:42:37;;;;;;;2.90;1.00;;;30.40;99.90;;;;;;5039178;28;20957;-81
2021/07/06 12:45:10;;;;;;;2.30;1.30;;;30.50;99.90;;;;;;5035469;28;20428;-81
2021/07/06 12:47:41;;;;;;;2.00;1.40;;;30.90;99.90;;;;;;5042526;28;20452;-80
2021/07/06 12:50:17;;;;;;;1.50;0.90;;;31.20;99.90;;;;;;5037381;28;20433;-81
2021/07/06 12:52:46;;;;;;;3.20;1.17;;;31.60;99.90;;;;;;5035752;28;20435;-82
2021/07/06 12:55:17;;;;;;;1.30;1.20;;;31.90;99.90;;;;;;5037471;28;20459;-81
2021/07/06 12:57:46;;;;;;;1.20;0.93;;;31.80;99.90;;;;;;5025982;28;20494;-82
2021/07/06 13:00:18;;;;;;;1.40;0.80;;;31.70;99.90;;;;;;5027769;28;20469;-82
2021/07/06 13:02:52;;;;;;;2.20;1.10;;;31.60;99.90;;;;;;5042310;28;20990;-81
2021/07/06 13:05:29;;;;;;;5.67;1.57;;;31.70;99.90;;;;;;5026466;28;20475;-81